sensor_id;sensor_type;location;lat;lon;timestamp;P1;durP1;ratioP1;P2;durP2;ratioP2
21251;SDS011;10784;50.578;17.878;2022-12-18T00:01:23;55.50;;;14.25;;
21251;SDS011;10784;50.578;17.878;2022-12-18T00:03:56;29.25;;;11.45;;
21251;SDS011;10784;50.578;17.878;2022-12-18T00:06:30;32.50;;;9.82;;
21251;SDS011;10784;50.578;17.878;2022-12-18T00:09:03;39.38;;;10.65;;
21251;SDS011;10784;50.578;17.878;2022-12-18T00:11:36;39.75;;;12.15;;
21251;SDS011;10784;50.578;17.878;2022-12-18T00:14:09;42.13;;;15.65;;
21251;SDS011;10784;50.578;17.878;2022-12-18T00:16:43;34.60;;;11.77;;
21251;SDS011;10784;50.578;17.878;2022-12-18T00:19:16;28.98;;;9.13;;
21251;SDS011;10784;50.578;17.878;2022-12-18T00:21:49;30.30;;;11.20;;
21251;SDS011;10784;50.578;17.878;2022-12-18T00:24:22;30.25;;;11.25;;
21251;SDS011;10784;50.578;17.878;2022-12-18T00:26:55;21.42;;;9.40;;
21251;SDS011;10784;50.578;17.878;2022-12-18T00:29:27;36.75;;;11.65;;
21251;SDS011;10784;50.578;17.878;2022-12-18T00:32:00;33.40;;;9.18;;
21251;SDS011;10784;50.578;17.878;2022-12-18T00:34:33;20.23;;;8.35;;
21251;SDS011;10784;50.578;17.878;2022-12-18T00:37:06;22.23;;;7.32;;
21251;SDS011;10784;50.578;17.878;2022-12-18T00:39:39;44.50;;;9.02;;
21251;SDS011;10784;50.578;17.878;2022-12-18T00:42:12;30.33;;;8.23;;
21251;SDS011;10784;50.578;17.878;2022-12-18T00:45:03;35.72;;;9.90;;
21251;SDS011;10784;50.578;17.878;2022-12-18T00:47:43;30.52;;;11.18;;
21251;SDS011;10784;50.578;17.878;2022-12-18T00:50:16;20.77;;;9.43;;
21251;SDS011;10784;50.578;17.878;2022-12-18T00:52:49;43.20;;;10.68;;
21251;SDS011;10784;50.578;17.878;2022-12-18T00:55:22;34.38;;;9.70;;
21251;SDS011;10784;50.578;17.878;2022-12-18T00:57:54;28.38;;;9.90;;
21251;SDS011;10784;50.578;17.878;2022-12-18T01:00:27;46.75;;;13.13;;
21251;SDS011;10784;50.578;17.878;2022-12-18T01:03:00;36.70;;;9.93;;
21251;SDS011;10784;50.578;17.878;2022-12-18T01:05:38;21.10;;;8.50;;
21251;SDS011;10784;50.578;17.878;2022-12-18T01:08:11;27.27;;;9.15;;
21251;SDS011;10784;50.578;17.878;2022-12-18T01:10:43;24.73;;;7.05;;
21251;SDS011;10784;50.578;17.878;2022-12-18T01:13:17;25.80;;;10.63;;
21251;SDS011;10784;50.578;17.878;2022-12-18T01:15:54;26.35;;;10.30;;
21251;SDS011;10784;50.578;17.878;2022-12-18T01:18:27;27.45;;;8.95;;
21251;SDS011;10784;50.578;17.878;2022-12-18T01:20:59;39.50;;;11.32;;
21251;SDS011;10784;50.578;17.878;2022-12-18T01:23:34;25.88;;;10.55;;
21251;SDS011;10784;50.578;17.878;2022-12-18T01:26:07;22.77;;;10.50;;
21251;SDS011;10784;50.578;17.878;2022-12-18T01:28:40;29.88;;;9.18;;
21251;SDS011;10784;50.578;17.878;2022-12-18T01:33:49;31.98;;;10.07;;
21251;SDS011;10784;50.578;17.878;2022-12-18T01:36:27;33.05;;;10.93;;
21251;SDS011;10784;50.578;17.878;2022-12-18T01:39:03;26.33;;;9.73;;
21251;SDS011;10784;50.578;17.878;2022-12-18T01:41:36;26.52;;;8.38;;
21251;SDS011;10784;50.578;17.878;2022-12-18T01:47:00;33.08;;;11.18;;
21251;SDS011;10784;50.578;17.878;2022-12-18T01:49:33;35.38;;;11.18;;
21251;SDS011;10784;50.578;17.878;2022-12-18T01:52:06;33.22;;;10.25;;
21251;SDS011;10784;50.578;17.878;2022-12-18T01:54:38;50.13;;;13.10;;
21251;SDS011;10784;50.578;17.878;2022-12-18T01:57:11;35.53;;;11.05;;
21251;SDS011;10784;50.578;17.878;2022-12-18T01:59:45;31.05;;;10.63;;
21251;SDS011;10784;50.578;17.878;2022-12-18T02:02:20;31.73;;;11.60;;
21251;SDS011;10784;50.578;17.878;2022-12-18T02:04:54;39.30;;;9.75;;
21251;SDS011;10784;50.578;17.878;2022-12-18T02:10:07;25.83;;;11.18;;
21251;SDS011;10784;50.578;17.878;2022-12-18T02:12:48;31.65;;;10.30;;
21251;SDS011;10784;50.578;17.878;2022-12-18T02:15:28;29.70;;;10.20;;
21251;SDS011;10784;50.578;17.878;2022-12-18T02:18:05;41.13;;;13.07;;
21251;SDS011;10784;50.578;17.878;2022-12-18T02:20:54;36.83;;;11.80;;
21251;SDS011;10784;50.578;17.878;2022-12-18T02:26:26;37.78;;;13.40;;
21251;SDS011;10784;50.578;17.878;2022-12-18T02:29:18;45.65;;;13.15;;
21251;SDS011;10784;50.578;17.878;2022-12-18T02:31:53;36.33;;;10.52;;
21251;SDS011;10784;50.578;17.878;2022-12-18T02:34:32;42.30;;;11.75;;
21251;SDS011;10784;50.578;17.878;2022-12-18T02:37:10;42.22;;;12.10;;
21251;SDS011;10784;50.578;17.878;2022-12-18T02:39:45;51.30;;;15.55;;
21251;SDS011;10784;50.578;17.878;2022-12-18T02:42:20;70.63;;;23.75;;
21251;SDS011;10784;50.578;17.878;2022-12-18T02:44:53;74.50;;;20.15;;
21251;SDS011;10784;50.578;17.878;2022-12-18T02:47:31;40.03;;;14.60;;
21251;SDS011;10784;50.578;17.878;2022-12-18T02:50:11;31.48;;;11.70;;
21251;SDS011;10784;50.578;17.878;2022-12-18T02:53:04;50.92;;;13.93;;
21251;SDS011;10784;50.578;17.878;2022-12-18T02:55:45;40.50;;;13.40;;
21251;SDS011;10784;50.578;17.878;2022-12-18T03:01:21;31.85;;;10.20;;
21251;SDS011;10784;50.578;17.878;2022-12-18T03:04:40;36.45;;;12.75;;
21251;SDS011;10784;50.578;17.878;2022-12-18T03:06:54;46.22;;;12.05;;
21251;SDS011;10784;50.578;17.878;2022-12-18T03:09:32;25.80;;;8.68;;
21251;SDS011;10784;50.578;17.878;2022-12-18T03:15:04;31.85;;;12.82;;
21251;SDS011;10784;50.578;17.878;2022-12-18T03:17:52;39.75;;;11.05;;
21251;SDS011;10784;50.578;17.878;2022-12-18T03:20:30;28.85;;;11.10;;
21251;SDS011;10784;50.578;17.878;2022-12-18T03:23:06;36.17;;;12.30;;
21251;SDS011;10784;50.578;17.878;2022-12-18T03:25:41;39.90;;;9.73;;
21251;SDS011;10784;50.578;17.878;2022-12-18T03:28:15;33.03;;;9.93;;
21251;SDS011;10784;50.578;17.878;2022-12-18T03:30:56;34.03;;;10.47;;
21251;SDS011;10784;50.578;17.878;2022-12-18T03:33:55;26.02;;;9.40;;
21251;SDS011;10784;50.578;17.878;2022-12-18T03:36:35;49.35;;;11.57;;
21251;SDS011;10784;50.578;17.878;2022-12-18T03:39:08;30.52;;;10.32;;
21251;SDS011;10784;50.578;17.878;2022-12-18T03:41:44;36.40;;;9.88;;
21251;SDS011;10784;50.578;17.878;2022-12-18T03:44:31;24.00;;;8.52;;
21251;SDS011;10784;50.578;17.878;2022-12-18T03:54:55;41.05;;;11.30;;
21251;SDS011;10784;50.578;17.878;2022-12-18T03:57:29;42.10;;;10.90;;
21251;SDS011;10784;50.578;17.878;2022-12-18T04:00:07;24.80;;;9.18;;
21251;SDS011;10784;50.578;17.878;2022-12-18T04:02:56;37.30;;;12.85;;
21251;SDS011;10784;50.578;17.878;2022-12-18T04:05:40;43.30;;;9.35;;
21251;SDS011;10784;50.578;17.878;2022-12-18T04:08:15;31.05;;;9.90;;
21251;SDS011;10784;50.578;17.878;2022-12-18T04:10:55;32.33;;;10.88;;
21251;SDS011;10784;50.578;17.878;2022-12-18T04:13:34;23.65;;;10.07;;
21251;SDS011;10784;50.578;17.878;2022-12-18T04:16:11;20.10;;;8.50;;
21251;SDS011;10784;50.578;17.878;2022-12-18T04:18:47;26.27;;;9.60;;
21251;SDS011;10784;50.578;17.878;2022-12-18T04:21:20;46.28;;;9.93;;
21251;SDS011;10784;50.578;17.878;2022-12-18T04:23:54;29.60;;;10.70;;
21251;SDS011;10784;50.578;17.878;2022-12-18T04:26:27;26.30;;;9.70;;
21251;SDS011;10784;50.578;17.878;2022-12-18T04:29:22;38.85;;;12.27;;
21251;SDS011;10784;50.578;17.878;2022-12-18T04:31:55;39.83;;;9.10;;
21251;SDS011;10784;50.578;17.878;2022-12-18T04:34:30;25.13;;;11.05;;
21251;SDS011;10784;50.578;17.878;2022-12-18T04:37:03;27.90;;;9.10;;
21251;SDS011;10784;50.578;17.878;2022-12-18T04:39:37;29.15;;;8.55;;
21251;SDS011;10784;50.578;17.878;2022-12-18T04:42:16;38.15;;;10.50;;
21251;SDS011;10784;50.578;17.878;2022-12-18T04:44:49;33.28;;;9.98;;
21251;SDS011;10784;50.578;17.878;2022-12-18T04:47:22;54.97;;;21.02;;
21251;SDS011;10784;50.578;17.878;2022-12-18T04:49:55;31.60;;;12.60;;
21251;SDS011;10784;50.578;17.878;2022-12-18T04:52:27;25.73;;;10.20;;
21251;SDS011;10784;50.578;17.878;2022-12-18T04:55:00;40.72;;;11.02;;
21251;SDS011;10784;50.578;17.878;2022-12-18T04:57:33;26.50;;;7.90;;
21251;SDS011;10784;50.578;17.878;2022-12-18T05:00:06;22.83;;;10.75;;
21251;SDS011;10784;50.578;17.878;2022-12-18T05:02:39;36.22;;;13.85;;
21251;SDS011;10784;50.578;17.878;2022-12-18T05:05:12;36.42;;;14.02;;
21251;SDS011;10784;50.578;17.878;2022-12-18T05:07:44;36.92;;;10.98;;
21251;SDS011;10784;50.578;17.878;2022-12-18T05:10:17;30.38;;;10.57;;
21251;SDS011;10784;50.578;17.878;2022-12-18T05:12:50;44.90;;;13.20;;
21251;SDS011;10784;50.578;17.878;2022-12-18T05:15:32;36.88;;;11.90;;
21251;SDS011;10784;50.578;17.878;2022-12-18T05:18:05;41.67;;;11.38;;
21251;SDS011;10784;50.578;17.878;2022-12-18T05:20:39;34.72;;;10.85;;
21251;SDS011;10784;50.578;17.878;2022-12-18T05:23:12;36.83;;;10.82;;
21251;SDS011;10784;50.578;17.878;2022-12-18T05:25:50;35.92;;;8.90;;
21251;SDS011;10784;50.578;17.878;2022-12-18T05:28:24;22.15;;;7.15;;
21251;SDS011;10784;50.578;17.878;2022-12-18T05:30:58;28.10;;;8.98;;
21251;SDS011;10784;50.578;17.878;2022-12-18T05:33:32;24.80;;;10.50;;
21251;SDS011;10784;50.578;17.878;2022-12-18T05:36:06;35.10;;;9.98;;
21251;SDS011;10784;50.578;17.878;2022-12-18T05:38:39;33.88;;;11.65;;
21251;SDS011;10784;50.578;17.878;2022-12-18T05:41:12;23.83;;;10.15;;
21251;SDS011;10784;50.578;17.878;2022-12-18T05:43:44;49.35;;;9.48;;
21251;SDS011;10784;50.578;17.878;2022-12-18T05:46:18;29.27;;;9.70;;
21251;SDS011;10784;50.578;17.878;2022-12-18T05:48:51;23.30;;;8.02;;
21251;SDS011;10784;50.578;17.878;2022-12-18T05:51:24;30.80;;;10.05;;
21251;SDS011;10784;50.578;17.878;2022-12-18T05:53:56;21.98;;;9.27;;
21251;SDS011;10784;50.578;17.878;2022-12-18T05:56:29;30.83;;;9.52;;
21251;SDS011;10784;50.578;17.878;2022-12-18T05:59:02;25.85;;;8.85;;
21251;SDS011;10784;50.578;17.878;2022-12-18T06:01:35;28.02;;;9.15;;
21251;SDS011;10784;50.578;17.878;2022-12-18T06:04:07;29.05;;;9.25;;
21251;SDS011;10784;50.578;17.878;2022-12-18T06:06:40;27.05;;;9.32;;
21251;SDS011;10784;50.578;17.878;2022-12-18T06:09:13;32.83;;;9.50;;
21251;SDS011;10784;50.578;17.878;2022-12-18T06:11:46;28.75;;;9.52;;
21251;SDS011;10784;50.578;17.878;2022-12-18T06:14:18;32.78;;;9.77;;
21251;SDS011;10784;50.578;17.878;2022-12-18T06:16:51;26.67;;;8.00;;
21251;SDS011;10784;50.578;17.878;2022-12-18T06:19:24;28.15;;;11.50;;
21251;SDS011;10784;50.578;17.878;2022-12-18T06:21:57;29.65;;;11.25;;
21251;SDS011;10784;50.578;17.878;2022-12-18T06:24:31;22.70;;;8.15;;
21251;SDS011;10784;50.578;17.878;2022-12-18T06:27:04;29.00;;;10.18;;
21251;SDS011;10784;50.578;17.878;2022-12-18T06:29:36;40.15;;;12.20;;
21251;SDS011;10784;50.578;17.878;2022-12-18T06:32:09;44.15;;;12.98;;
21251;SDS011;10784;50.578;17.878;2022-12-18T06:34:42;40.13;;;11.88;;
21251;SDS011;10784;50.578;17.878;2022-12-18T06:37:15;30.58;;;11.35;;
21251;SDS011;10784;50.578;17.878;2022-12-18T06:39:48;24.67;;;10.32;;
21251;SDS011;10784;50.578;17.878;2022-12-18T06:42:22;22.25;;;8.00;;
21251;SDS011;10784;50.578;17.878;2022-12-18T06:44:55;32.55;;;9.73;;
21251;SDS011;10784;50.578;17.878;2022-12-18T06:47:28;45.08;;;9.30;;
21251;SDS011;10784;50.578;17.878;2022-12-18T06:50:00;33.78;;;10.65;;
21251;SDS011;10784;50.578;17.878;2022-12-18T06:52:33;28.92;;;8.55;;
21251;SDS011;10784;50.578;17.878;2022-12-18T06:55:10;25.83;;;10.50;;
21251;SDS011;10784;50.578;17.878;2022-12-18T06:57:43;23.13;;;8.27;;
21251;SDS011;10784;50.578;17.878;2022-12-18T07:00:16;29.73;;;9.50;;
21251;SDS011;10784;50.578;17.878;2022-12-18T07:02:49;16.73;;;6.60;;
21251;SDS011;10784;50.578;17.878;2022-12-18T07:05:22;25.52;;;9.05;;
21251;SDS011;10784;50.578;17.878;2022-12-18T07:07:55;29.10;;;10.68;;
21251;SDS011;10784;50.578;17.878;2022-12-18T07:10:28;31.70;;;8.52;;
21251;SDS011;10784;50.578;17.878;2022-12-18T07:13:01;23.08;;;9.27;;
21251;SDS011;10784;50.578;17.878;2022-12-18T07:15:33;21.15;;;8.00;;
21251;SDS011;10784;50.578;17.878;2022-12-18T07:18:06;27.13;;;9.90;;
21251;SDS011;10784;50.578;17.878;2022-12-18T07:20:39;26.20;;;8.90;;
21251;SDS011;10784;50.578;17.878;2022-12-18T07:23:12;30.60;;;11.20;;
21251;SDS011;10784;50.578;17.878;2022-12-18T07:25:44;20.42;;;8.43;;
21251;SDS011;10784;50.578;17.878;2022-12-18T07:28:17;25.50;;;7.20;;
21251;SDS011;10784;50.578;17.878;2022-12-18T07:30:50;24.92;;;7.55;;
21251;SDS011;10784;50.578;17.878;2022-12-18T07:33:24;26.15;;;8.85;;
21251;SDS011;10784;50.578;17.878;2022-12-18T07:35:58;30.02;;;8.52;;
21251;SDS011;10784;50.578;17.878;2022-12-18T07:38:32;23.73;;;8.32;;
21251;SDS011;10784;50.578;17.878;2022-12-18T07:41:06;36.65;;;10.68;;
21251;SDS011;10784;50.578;17.878;2022-12-18T07:43:39;23.45;;;7.53;;
21251;SDS011;10784;50.578;17.878;2022-12-18T07:46:13;30.27;;;15.52;;
21251;SDS011;10784;50.578;17.878;2022-12-18T07:48:47;25.88;;;11.45;;
21251;SDS011;10784;50.578;17.878;2022-12-18T07:51:21;25.08;;;9.93;;
21251;SDS011;10784;50.578;17.878;2022-12-18T07:53:54;18.20;;;6.63;;
21251;SDS011;10784;50.578;17.878;2022-12-18T07:56:26;20.77;;;8.15;;
21251;SDS011;10784;50.578;17.878;2022-12-18T07:59:02;34.90;;;12.60;;
21251;SDS011;10784;50.578;17.878;2022-12-18T08:01:34;35.72;;;11.55;;
21251;SDS011;10784;50.578;17.878;2022-12-18T08:04:08;40.13;;;12.20;;
21251;SDS011;10784;50.578;17.878;2022-12-18T08:06:41;27.80;;;10.32;;
21251;SDS011;10784;50.578;17.878;2022-12-18T08:09:19;33.92;;;11.35;;
21251;SDS011;10784;50.578;17.878;2022-12-18T08:11:51;21.50;;;10.00;;
21251;SDS011;10784;50.578;17.878;2022-12-18T08:14:24;27.95;;;10.07;;
21251;SDS011;10784;50.578;17.878;2022-12-18T08:16:57;17.92;;;7.47;;
21251;SDS011;10784;50.578;17.878;2022-12-18T08:19:30;24.50;;;8.70;;
21251;SDS011;10784;50.578;17.878;2022-12-18T08:22:03;37.15;;;11.38;;
21251;SDS011;10784;50.578;17.878;2022-12-18T08:24:36;26.23;;;6.97;;
21251;SDS011;10784;50.578;17.878;2022-12-18T08:27:09;21.90;;;9.30;;
21251;SDS011;10784;50.578;17.878;2022-12-18T08:30:03;15.30;;;7.53;;
21251;SDS011;10784;50.578;17.878;2022-12-18T08:32:38;17.95;;;7.57;;
21251;SDS011;10784;50.578;17.878;2022-12-18T08:35:11;17.38;;;9.15;;
21251;SDS011;10784;50.578;17.878;2022-12-18T08:37:49;25.58;;;9.07;;
21251;SDS011;10784;50.578;17.878;2022-12-18T08:40:22;27.17;;;8.48;;
21251;SDS011;10784;50.578;17.878;2022-12-18T08:42:55;24.20;;;10.23;;
21251;SDS011;10784;50.578;17.878;2022-12-18T08:45:46;29.20;;;11.10;;
21251;SDS011;10784;50.578;17.878;2022-12-18T08:48:19;21.38;;;10.25;;
21251;SDS011;10784;50.578;17.878;2022-12-18T08:50:57;29.70;;;11.88;;
21251;SDS011;10784;50.578;17.878;2022-12-18T08:53:30;30.90;;;11.55;;
21251;SDS011;10784;50.578;17.878;2022-12-18T08:56:07;26.40;;;11.48;;
21251;SDS011;10784;50.578;17.878;2022-12-18T08:58:40;28.17;;;10.30;;
21251;SDS011;10784;50.578;17.878;2022-12-18T09:01:13;39.22;;;11.35;;
21251;SDS011;10784;50.578;17.878;2022-12-18T09:03:46;28.73;;;11.48;;
21251;SDS011;10784;50.578;17.878;2022-12-18T09:06:20;23.35;;;9.02;;
21251;SDS011;10784;50.578;17.878;2022-12-18T09:08:52;20.85;;;8.40;;
21251;SDS011;10784;50.578;17.878;2022-12-18T09:11:26;26.58;;;10.65;;
21251;SDS011;10784;50.578;17.878;2022-12-18T09:14:00;36.40;;;12.40;;
21251;SDS011;10784;50.578;17.878;2022-12-18T09:16:33;39.30;;;12.65;;
21251;SDS011;10784;50.578;17.878;2022-12-18T09:19:08;17.05;;;7.97;;
21251;SDS011;10784;50.578;17.878;2022-12-18T09:21:41;32.90;;;13.13;;
21251;SDS011;10784;50.578;17.878;2022-12-18T09:24:19;36.03;;;13.75;;
21251;SDS011;10784;50.578;17.878;2022-12-18T09:26:57;30.52;;;13.05;;
21251;SDS011;10784;50.578;17.878;2022-12-18T09:29:30;37.53;;;13.75;;
21251;SDS011;10784;50.578;17.878;2022-12-18T09:32:03;49.42;;;16.75;;
21251;SDS011;10784;50.578;17.878;2022-12-18T09:34:36;35.97;;;15.45;;
21251;SDS011;10784;50.578;17.878;2022-12-18T09:37:09;41.08;;;15.95;;
21251;SDS011;10784;50.578;17.878;2022-12-18T09:39:41;41.90;;;13.80;;
21251;SDS011;10784;50.578;17.878;2022-12-18T09:42:21;38.35;;;15.40;;
21251;SDS011;10784;50.578;17.878;2022-12-18T09:44:54;40.30;;;17.98;;
21251;SDS011;10784;50.578;17.878;2022-12-18T09:47:27;47.47;;;14.90;;
21251;SDS011;10784;50.578;17.878;2022-12-18T09:50:01;40.10;;;12.65;;
21251;SDS011;10784;50.578;17.878;2022-12-18T09:57:42;44.78;;;15.90;;
21251;SDS011;10784;50.578;17.878;2022-12-18T10:00:19;31.10;;;13.43;;
21251;SDS011;10784;50.578;17.878;2022-12-18T10:02:53;42.45;;;16.10;;
21251;SDS011;10784;50.578;17.878;2022-12-18T10:08:03;42.13;;;15.60;;
21251;SDS011;10784;50.578;17.878;2022-12-18T10:10:48;37.40;;;15.23;;
21251;SDS011;10784;50.578;17.878;2022-12-18T10:13:33;39.17;;;15.75;;
21251;SDS011;10784;50.578;17.878;2022-12-18T10:16:15;35.53;;;14.13;;
21251;SDS011;10784;50.578;17.878;2022-12-18T10:21:23;48.13;;;15.43;;
21251;SDS011;10784;50.578;17.878;2022-12-18T10:24:03;41.13;;;14.23;;
21251;SDS011;10784;50.578;17.878;2022-12-18T10:26:37;55.35;;;20.25;;
21251;SDS011;10784;50.578;17.878;2022-12-18T10:29:10;55.33;;;19.38;;
21251;SDS011;10784;50.578;17.878;2022-12-18T10:31:44;71.25;;;23.70;;
21251;SDS011;10784;50.578;17.878;2022-12-18T10:34:17;47.60;;;15.00;;
21251;SDS011;10784;50.578;17.878;2022-12-18T10:36:49;45.72;;;12.18;;
21251;SDS011;10784;50.578;17.878;2022-12-18T10:39:23;37.40;;;11.32;;
21251;SDS011;10784;50.578;17.878;2022-12-18T10:42:13;39.45;;;12.20;;
21251;SDS011;10784;50.578;17.878;2022-12-18T10:44:48;33.83;;;13.55;;
21251;SDS011;10784;50.578;17.878;2022-12-18T10:47:32;48.50;;;13.18;;
21251;SDS011;10784;50.578;17.878;2022-12-18T10:50:11;44.70;;;16.77;;
21251;SDS011;10784;50.578;17.878;2022-12-18T10:52:58;29.23;;;10.20;;
21251;SDS011;10784;50.578;17.878;2022-12-18T10:55:32;62.13;;;16.35;;
21251;SDS011;10784;50.578;17.878;2022-12-18T11:01:04;40.17;;;12.32;;
21251;SDS011;10784;50.578;17.878;2022-12-18T11:11:52;28.73;;;12.57;;
21251;SDS011;10784;50.578;17.878;2022-12-18T11:17:02;61.75;;;18.90;;
21251;SDS011;10784;50.578;17.878;2022-12-18T11:19:55;27.08;;;9.50;;
21251;SDS011;10784;50.578;17.878;2022-12-18T11:22:30;44.17;;;15.45;;
21251;SDS011;10784;50.578;17.878;2022-12-18T11:31:16;65.40;;;15.93;;
21251;SDS011;10784;50.578;17.878;2022-12-18T11:33:54;40.65;;;15.40;;
21251;SDS011;10784;50.578;17.878;2022-12-18T11:36:48;28.50;;;11.48;;
21251;SDS011;10784;50.578;17.878;2022-12-18T11:42:12;42.60;;;12.15;;
21251;SDS011;10784;50.578;17.878;2022-12-18T11:44:49;46.28;;;14.98;;
21251;SDS011;10784;50.578;17.878;2022-12-18T11:50:19;39.70;;;13.55;;
21251;SDS011;10784;50.578;17.878;2022-12-18T11:52:55;32.17;;;11.35;;
21251;SDS011;10784;50.578;17.878;2022-12-18T11:55:54;45.45;;;16.27;;
21251;SDS011;10784;50.578;17.878;2022-12-18T12:01:08;36.53;;;10.80;;
21251;SDS011;10784;50.578;17.878;2022-12-18T12:06:24;19.42;;;8.38;;
21251;SDS011;10784;50.578;17.878;2022-12-18T12:16:57;36.70;;;10.48;;
21251;SDS011;10784;50.578;17.878;2022-12-18T12:19:42;54.22;;;15.82;;
21251;SDS011;10784;50.578;17.878;2022-12-18T12:30:36;30.20;;;10.77;;
21251;SDS011;10784;50.578;17.878;2022-12-18T12:38:46;29.75;;;10.10;;
21251;SDS011;10784;50.578;17.878;2022-12-18T12:41:23;41.97;;;12.90;;
21251;SDS011;10784;50.578;17.878;2022-12-18T12:44:35;31.67;;;12.75;;
21251;SDS011;10784;50.578;17.878;2022-12-18T12:47:44;36.03;;;13.10;;
21251;SDS011;10784;50.578;17.878;2022-12-18T12:50:14;37.10;;;13.60;;
21251;SDS011;10784;50.578;17.878;2022-12-18T12:52:51;22.17;;;11.68;;
21251;SDS011;10784;50.578;17.878;2022-12-18T12:55:27;32.30;;;12.10;;
21251;SDS011;10784;50.578;17.878;2022-12-18T12:58:07;42.92;;;16.98;;
21251;SDS011;10784;50.578;17.878;2022-12-18T13:00:47;25.60;;;10.48;;
21251;SDS011;10784;50.578;17.878;2022-12-18T13:06:19;21.40;;;10.32;;
21251;SDS011;10784;50.578;17.878;2022-12-18T13:08:58;29.58;;;10.45;;
21251;SDS011;10784;50.578;17.878;2022-12-18T13:11:36;21.77;;;11.25;;
21251;SDS011;10784;50.578;17.878;2022-12-18T13:14:32;24.20;;;10.57;;
21251;SDS011;10784;50.578;17.878;2022-12-18T13:20:11;33.60;;;11.90;;
21251;SDS011;10784;50.578;17.878;2022-12-18T13:22:44;20.30;;;9.57;;
21251;SDS011;10784;50.578;17.878;2022-12-18T13:25:36;22.70;;;9.18;;
21251;SDS011;10784;50.578;17.878;2022-12-18T13:28:13;36.40;;;13.35;;
21251;SDS011;10784;50.578;17.878;2022-12-18T13:30:47;28.98;;;9.80;;
21251;SDS011;10784;50.578;17.878;2022-12-18T13:36:03;32.38;;;11.55;;
21251;SDS011;10784;50.578;17.878;2022-12-18T13:38:42;45.58;;;11.57;;
21251;SDS011;10784;50.578;17.878;2022-12-18T13:43:51;57.55;;;13.13;;
21251;SDS011;10784;50.578;17.878;2022-12-18T13:46:29;34.13;;;12.88;;
21251;SDS011;10784;50.578;17.878;2022-12-18T13:49:45;27.75;;;10.23;;
21251;SDS011;10784;50.578;17.878;2022-12-18T13:51:59;36.33;;;12.70;;
21251;SDS011;10784;50.578;17.878;2022-12-18T13:54:36;37.42;;;15.45;;
21251;SDS011;10784;50.578;17.878;2022-12-18T14:02:53;42.95;;;14.27;;
21251;SDS011;10784;50.578;17.878;2022-12-18T14:05:34;50.20;;;15.77;;
21251;SDS011;10784;50.578;17.878;2022-12-18T14:08:14;44.15;;;14.75;;
21251;SDS011;10784;50.578;17.878;2022-12-18T14:10:48;45.75;;;15.48;;
21251;SDS011;10784;50.578;17.878;2022-12-18T14:13:30;38.15;;;12.98;;
21251;SDS011;10784;50.578;17.878;2022-12-18T14:16:05;45.20;;;15.18;;
21251;SDS011;10784;50.578;17.878;2022-12-18T14:18:41;60.05;;;18.27;;
21251;SDS011;10784;50.578;17.878;2022-12-18T14:21:28;53.78;;;14.32;;
21251;SDS011;10784;50.578;17.878;2022-12-18T14:26:51;41.25;;;14.60;;
21251;SDS011;10784;50.578;17.878;2022-12-18T14:29:24;38.20;;;16.15;;
21251;SDS011;10784;50.578;17.878;2022-12-18T14:32:11;55.92;;;17.50;;
21251;SDS011;10784;50.578;17.878;2022-12-18T14:34:50;51.92;;;18.27;;
21251;SDS011;10784;50.578;17.878;2022-12-18T14:37:24;49.70;;;18.77;;
21251;SDS011;10784;50.578;17.878;2022-12-18T14:39:59;58.92;;;18.08;;
21251;SDS011;10784;50.578;17.878;2022-12-18T14:42:41;53.40;;;15.32;;
21251;SDS011;10784;50.578;17.878;2022-12-18T14:45:33;51.67;;;17.58;;
21251;SDS011;10784;50.578;17.878;2022-12-18T14:48:15;40.75;;;15.15;;
21251;SDS011;10784;50.578;17.878;2022-12-18T14:50:58;44.97;;;16.58;;
21251;SDS011;10784;50.578;17.878;2022-12-18T14:59:05;79.60;;;30.88;;
21251;SDS011;10784;50.578;17.878;2022-12-18T15:01:48;123.07;;;37.60;;
21251;SDS011;10784;50.578;17.878;2022-12-18T15:04:28;90.30;;;31.05;;
21251;SDS011;10784;50.578;17.878;2022-12-18T15:07:17;76.03;;;26.10;;
21251;SDS011;10784;50.578;17.878;2022-12-18T15:12:43;89.25;;;31.52;;
21251;SDS011;10784;50.578;17.878;2022-12-18T15:20:45;72.75;;;24.92;;
21251;SDS011;10784;50.578;17.878;2022-12-18T15:26:06;65.63;;;25.65;;
21251;SDS011;10784;50.578;17.878;2022-12-18T15:31:28;43.97;;;16.20;;
21251;SDS011;10784;50.578;17.878;2022-12-18T15:34:08;51.20;;;15.85;;
21251;SDS011;10784;50.578;17.878;2022-12-18T15:36:42;56.73;;;15.93;;
21251;SDS011;10784;50.578;17.878;2022-12-18T15:39:14;63.25;;;18.23;;
21251;SDS011;10784;50.578;17.878;2022-12-18T15:41:48;45.47;;;13.93;;
21251;SDS011;10784;50.578;17.878;2022-12-18T15:44:39;40.60;;;15.55;;
21251;SDS011;10784;50.578;17.878;2022-12-18T15:47:12;56.20;;;14.05;;
21251;SDS011;10784;50.578;17.878;2022-12-18T15:49:45;80.88;;;18.42;;
21251;SDS011;10784;50.578;17.878;2022-12-18T15:52:19;63.92;;;18.15;;
21251;SDS011;10784;50.578;17.878;2022-12-18T15:54:58;51.30;;;16.52;;
21251;SDS011;10784;50.578;17.878;2022-12-18T15:57:49;51.97;;;19.83;;
21251;SDS011;10784;50.578;17.878;2022-12-18T16:00:22;64.82;;;18.52;;
21251;SDS011;10784;50.578;17.878;2022-12-18T16:02:55;50.63;;;17.33;;
21251;SDS011;10784;50.578;17.878;2022-12-18T16:05:29;53.25;;;18.38;;
21251;SDS011;10784;50.578;17.878;2022-12-18T16:08:02;48.60;;;12.98;;
21251;SDS011;10784;50.578;17.878;2022-12-18T16:10:35;57.55;;;18.52;;
21251;SDS011;10784;50.578;17.878;2022-12-18T16:13:12;81.05;;;23.95;;
21251;SDS011;10784;50.578;17.878;2022-12-18T16:15:45;68.35;;;24.05;;
21251;SDS011;10784;50.578;17.878;2022-12-18T16:18:18;71.20;;;23.45;;
21251;SDS011;10784;50.578;17.878;2022-12-18T16:20:51;86.97;;;24.42;;
21251;SDS011;10784;50.578;17.878;2022-12-18T16:23:24;70.93;;;22.58;;
21251;SDS011;10784;50.578;17.878;2022-12-18T16:25:57;68.05;;;24.10;;
21251;SDS011;10784;50.578;17.878;2022-12-18T16:28:29;85.40;;;27.48;;
21251;SDS011;10784;50.578;17.878;2022-12-18T16:31:02;62.05;;;24.25;;
21251;SDS011;10784;50.578;17.878;2022-12-18T16:33:35;83.50;;;27.40;;
21251;SDS011;10784;50.578;17.878;2022-12-18T16:36:08;86.55;;;29.73;;
21251;SDS011;10784;50.578;17.878;2022-12-18T16:38:40;90.35;;;30.55;;
21251;SDS011;10784;50.578;17.878;2022-12-18T16:41:19;93.78;;;30.95;;
21251;SDS011;10784;50.578;17.878;2022-12-18T16:44:04;120.85;;;40.90;;
21251;SDS011;10784;50.578;17.878;2022-12-18T16:46:38;119.10;;;33.97;;
21251;SDS011;10784;50.578;17.878;2022-12-18T16:49:12;129.38;;;38.60;;
21251;SDS011;10784;50.578;17.878;2022-12-18T16:51:45;116.82;;;35.95;;
21251;SDS011;10784;50.578;17.878;2022-12-18T16:54:18;74.80;;;25.35;;
21251;SDS011;10784;50.578;17.878;2022-12-18T16:56:51;90.50;;;27.58;;
21251;SDS011;10784;50.578;17.878;2022-12-18T16:59:24;73.38;;;25.67;;
21251;SDS011;10784;50.578;17.878;2022-12-18T17:01:58;73.13;;;25.90;;
21251;SDS011;10784;50.578;17.878;2022-12-18T17:04:32;85.20;;;25.02;;
21251;SDS011;10784;50.578;17.878;2022-12-18T17:07:05;105.35;;;31.50;;
21251;SDS011;10784;50.578;17.878;2022-12-18T17:09:38;99.68;;;28.52;;